sensor_id;sensor_type;location;lat;lon;timestamp;temperature;humidity
23385;DHT22;11865;45.394;10.978;2023-03-01T00:01:38;7.10;91.20
23385;DHT22;11865;45.394;10.978;2023-03-01T00:04:05;7.10;91.20
23385;DHT22;11865;45.394;10.978;2023-03-01T00:06:32;7.10;91.20
23385;DHT22;11865;45.394;10.978;2023-03-01T00:09:00;7.10;91.30
23385;DHT22;11865;45.394;10.978;2023-03-01T00:11:28;7.00;91.30
23385;DHT22;11865;45.394;10.978;2023-03-01T00:13:56;7.00;91.40
23385;DHT22;11865;45.394;10.978;2023-03-01T00:16:25;7.00;91.20
23385;DHT22;11865;45.394;10.978;2023-03-01T00:18:54;7.00;91.30
23385;DHT22;11865;45.394;10.978;2023-03-01T00:21:21;7.00;91.30
23385;DHT22;11865;45.394;10.978;2023-03-01T00:23:49;6.90;91.40
23385;DHT22;11865;45.394;10.978;2023-03-01T00:26:17;6.80;91.40
23385;DHT22;11865;45.394;10.978;2023-03-01T00:28:45;6.80;91.50
23385;DHT22;11865;45.394;10.978;2023-03-01T00:31:14;6.70;91.90
23385;DHT22;11865;45.394;10.978;2023-03-01T00:33:41;6.50;92.20
23385;DHT22;11865;45.394;10.978;2023-03-01T00:36:09;6.30;92.40
23385;DHT22;11865;45.394;10.978;2023-03-01T00:38:37;6.30;92.40
23385;DHT22;11865;45.394;10.978;2023-03-01T00:41:05;6.30;92.50
23385;DHT22;11865;45.394;10.978;2023-03-01T00:43:32;6.20;92.80
23385;DHT22;11865;45.394;10.978;2023-03-01T00:46:08;6.20;92.80
23385;DHT22;11865;45.394;10.978;2023-03-01T00:48:36;6.10;92.90
23385;DHT22;11865;45.394;10.978;2023-03-01T00:51:07;6.00;93.30
23385;DHT22;11865;45.394;10.978;2023-03-01T00:53:35;5.90;93.70
23385;DHT22;11865;45.394;10.978;2023-03-01T00:56:03;5.90;94.00
23385;DHT22;11865;45.394;10.978;2023-03-01T00:58:30;5.80;94.30
23385;DHT22;11865;45.394;10.978;2023-03-01T01:00:58;5.60;94.00
23385;DHT22;11865;45.394;10.978;2023-03-01T01:03:25;5.60;94.50
23385;DHT22;11865;45.394;10.978;2023-03-01T01:05:53;5.60;95.00
23385;DHT22;11865;45.394;10.978;2023-03-01T01:08:20;5.50;95.50
23385;DHT22;11865;45.394;10.978;2023-03-01T01:10:48;5.30;95.30
23385;DHT22;11865;45.394;10.978;2023-03-01T01:13:15;5.00;96.50
23385;DHT22;11865;45.394;10.978;2023-03-01T01:15:42;4.90;96.10
23385;DHT22;11865;45.394;10.978;2023-03-01T01:18:09;4.80;96.50
23385;DHT22;11865;45.394;10.978;2023-03-01T01:20:37;4.70;96.60
23385;DHT22;11865;45.394;10.978;2023-03-01T01:23:05;4.90;96.10
23385;DHT22;11865;45.394;10.978;2023-03-01T01:25:34;5.10;96.00
23385;DHT22;11865;45.394;10.978;2023-03-01T01:28:01;4.80;96.80
23385;DHT22;11865;45.394;10.978;2023-03-01T01:30:28;4.50;97.90
23385;DHT22;11865;45.394;10.978;2023-03-01T01:32:55;4.20;98.20
23385;DHT22;11865;45.394;10.978;2023-03-01T01:35:22;4.20;98.50
23385;DHT22;11865;45.394;10.978;2023-03-01T01:37:50;3.90;98.90
23385;DHT22;11865;45.394;10.978;2023-03-01T01:40:17;3.80;99.40
23385;DHT22;11865;45.394;10.978;2023-03-01T01:42:45;3.90;98.80
23385;DHT22;11865;45.394;10.978;2023-03-01T01:47:55;3.90;99.20
23385;DHT22;11865;45.394;10.978;2023-03-01T01:50:24;3.70;99.20
23385;DHT22;11865;45.394;10.978;2023-03-01T01:52:52;3.60;99.90
23385;DHT22;11865;45.394;10.978;2023-03-01T01:55:24;3.50;99.60
23385;DHT22;11865;45.394;10.978;2023-03-01T01:57:55;3.60;99.80
23385;DHT22;11865;45.394;10.978;2023-03-01T02:00:24;3.50;99.70
23385;DHT22;11865;45.394;10.978;2023-03-01T02:02:56;3.40;99.90
23385;DHT22;11865;45.394;10.978;2023-03-01T02:08:25;3.60;99.90
23385;DHT22;11865;45.394;10.978;2023-03-01T02:10:54;3.70;99.40
23385;DHT22;11865;45.394;10.978;2023-03-01T02:13:21;3.60;99.90
23385;DHT22;11865;45.394;10.978;2023-03-01T02:15:49;3.50;99.90
23385;DHT22;11865;45.394;10.978;2023-03-01T02:18:17;3.40;99.90
23385;DHT22;11865;45.394;10.978;2023-03-01T02:23:15;3.60;99.60
23385;DHT22;11865;45.394;10.978;2023-03-01T02:30:47;4.50;97.90
23385;DHT22;11865;45.394;10.978;2023-03-01T02:33:36;4.70;98.30
23385;DHT22;11865;45.394;10.978;2023-03-01T02:36:06;4.70;98.50
23385;DHT22;11865;45.394;10.978;2023-03-01T02:38:35;4.80;98.60
23385;DHT22;11865;45.394;10.978;2023-03-01T02:41:02;4.80;98.90
23385;DHT22;11865;45.394;10.978;2023-03-01T02:43:31;4.80;99.30
23385;DHT22;11865;45.394;10.978;2023-03-01T02:46:07;4.80;99.30
23385;DHT22;11865;45.394;10.978;2023-03-01T02:48:39;4.80;99.50
23385;DHT22;11865;45.394;10.978;2023-03-01T02:51:10;4.70;99.70
23385;DHT22;11865;45.394;10.978;2023-03-01T02:56:05;4.70;99.90
23385;DHT22;11865;45.394;10.978;2023-03-01T02:58:41;4.70;99.90
23385;DHT22;11865;45.394;10.978;2023-03-01T03:01:14;4.60;99.90
23385;DHT22;11865;45.394;10.978;2023-03-01T03:03:43;4.60;99.90
23385;DHT22;11865;45.394;10.978;2023-03-01T03:06:10;4.70;99.90
23385;DHT22;11865;45.394;10.978;2023-03-01T03:08:38;4.80;99.90
23385;DHT22;11865;45.394;10.978;2023-03-01T03:11:05;4.80;99.90
23385;DHT22;11865;45.394;10.978;2023-03-01T03:13:34;4.70;99.90
23385;DHT22;11865;45.394;10.978;2023-03-01T03:16:01;4.70;99.90
23385;DHT22;11865;45.394;10.978;2023-03-01T03:18:29;4.80;99.90
23385;DHT22;11865;45.394;10.978;2023-03-01T03:20:56;4.90;99.80
23385;DHT22;11865;45.394;10.978;2023-03-01T03:23:23;5.10;99.40
23385;DHT22;11865;45.394;10.978;2023-03-01T03:25:50;4.90;99.90
23385;DHT22;11865;45.394;10.978;2023-03-01T03:28:18;4.80;99.90
23385;DHT22;11865;45.394;10.978;2023-03-01T03:30:45;4.80;99.90
23385;DHT22;11865;45.394;10.978;2023-03-01T03:33:13;4.70;99.90
23385;DHT22;11865;45.394;10.978;2023-03-01T03:35:42;4.50;99.90
23385;DHT22;11865;45.394;10.978;2023-03-01T03:38:10;4.50;99.90
23385;DHT22;11865;45.394;10.978;2023-03-01T03:40:44;4.60;99.90
23385;DHT22;11865;45.394;10.978;2023-03-01T03:43:15;4.70;99.90
23385;DHT22;11865;45.394;10.978;2023-03-01T03:45:46;4.90;99.90
23385;DHT22;11865;45.394;10.978;2023-03-01T03:48:13;4.90;99.90
23385;DHT22;11865;45.394;10.978;2023-03-01T03:50:41;4.90;99.90
23385;DHT22;11865;45.394;10.978;2023-03-01T03:53:10;5.00;99.90
23385;DHT22;11865;45.394;10.978;2023-03-01T03:55:37;5.00;99.90
23385;DHT22;11865;45.394;10.978;2023-03-01T03:58:07;5.00;99.90
23385;DHT22;11865;45.394;10.978;2023-03-01T04:00:38;5.00;99.90
23385;DHT22;11865;45.394;10.978;2023-03-01T04:03:06;4.90;99.90
23385;DHT22;11865;45.394;10.978;2023-03-01T04:05:34;4.90;99.90
23385;DHT22;11865;45.394;10.978;2023-03-01T04:08:02;4.90;99.90
23385;DHT22;11865;45.394;10.978;2023-03-01T04:10:30;4.80;99.90
23385;DHT22;11865;45.394;10.978;2023-03-01T04:12:58;4.80;99.90
23385;DHT22;11865;45.394;10.978;2023-03-01T04:15:25;4.80;99.90
23385;DHT22;11865;45.394;10.978;2023-03-01T04:17:54;4.80;99.90
23385;DHT22;11865;45.394;10.978;2023-03-01T04:20:23;4.80;99.90
23385;DHT22;11865;45.394;10.978;2023-03-01T04:23:00;4.70;99.90
23385;DHT22;11865;45.394;10.978;2023-03-01T04:25:38;4.70;99.90
23385;DHT22;11865;45.394;10.978;2023-03-01T04:28:06;4.80;99.90
23385;DHT22;11865;45.394;10.978;2023-03-01T04:30:34;4.70;99.90
23385;DHT22;11865;45.394;10.978;2023-03-01T04:33:03;4.70;99.90
23385;DHT22;11865;45.394;10.978;2023-03-01T04:35:31;4.80;99.90
23385;DHT22;11865;45.394;10.978;2023-03-01T04:37:58;4.80;99.90
23385;DHT22;11865;45.394;10.978;2023-03-01T04:40:26;4.90;99.90
23385;DHT22;11865;45.394;10.978;2023-03-01T04:42:53;4.80;99.90
23385;DHT22;11865;45.394;10.978;2023-03-01T04:45:20;4.80;99.90
23385;DHT22;11865;45.394;10.978;2023-03-01T04:47:48;4.80;99.90
23385;DHT22;11865;45.394;10.978;2023-03-01T04:50:16;4.80;99.90
23385;DHT22;11865;45.394;10.978;2023-03-01T04:52:43;4.80;99.90
23385;DHT22;11865;45.394;10.978;2023-03-01T04:55:11;4.90;99.90
23385;DHT22;11865;45.394;10.978;2023-03-01T04:57:38;4.80;99.90
23385;DHT22;11865;45.394;10.978;2023-03-01T05:00:06;4.80;99.90
23385;DHT22;11865;45.394;10.978;2023-03-01T05:02:56;4.90;99.90
23385;DHT22;11865;45.394;10.978;2023-03-01T05:05:25;5.00;99.70
23385;DHT22;11865;45.394;10.978;2023-03-01T05:07:54;5.00;99.30
23385;DHT22;11865;45.394;10.978;2023-03-01T05:10:21;5.10;99.10
23385;DHT22;11865;45.394;10.978;2023-03-01T05:12:49;5.10;99.10
23385;DHT22;11865;45.394;10.978;2023-03-01T05:15:16;5.10;99.30
23385;DHT22;11865;45.394;10.978;2023-03-01T05:17:43;5.00;99.30
23385;DHT22;11865;45.394;10.978;2023-03-01T05:20:10;5.10;99.30
23385;DHT22;11865;45.394;10.978;2023-03-01T05:22:38;5.20;99.20
23385;DHT22;11865;45.394;10.978;2023-03-01T05:25:05;5.20;99.30
23385;DHT22;11865;45.394;10.978;2023-03-01T05:27:34;5.20;99.30
23385;DHT22;11865;45.394;10.978;2023-03-01T05:30:02;5.30;99.20
23385;DHT22;11865;45.394;10.978;2023-03-01T05:32:41;5.40;99.00
23385;DHT22;11865;45.394;10.978;2023-03-01T05:35:08;5.40;99.40
23385;DHT22;11865;45.394;10.978;2023-03-01T05:37:35;5.40;99.40
23385;DHT22;11865;45.394;10.978;2023-03-01T05:40:03;5.40;99.40
23385;DHT22;11865;45.394;10.978;2023-03-01T05:42:31;5.50;99.40
23385;DHT22;11865;45.394;10.978;2023-03-01T05:44:59;5.60;99.10
23385;DHT22;11865;45.394;10.978;2023-03-01T05:47:26;5.70;99.00
23385;DHT22;11865;45.394;10.978;2023-03-01T05:49:53;5.70;98.90
23385;DHT22;11865;45.394;10.978;2023-03-01T05:52:20;5.70;98.80
23385;DHT22;11865;45.394;10.978;2023-03-01T05:54:47;5.70;99.00
23385;DHT22;11865;45.394;10.978;2023-03-01T05:57:15;5.70;99.10
23385;DHT22;11865;45.394;10.978;2023-03-01T05:59:42;5.70;99.10
23385;DHT22;11865;45.394;10.978;2023-03-01T06:02:09;5.70;99.10
23385;DHT22;11865;45.394;10.978;2023-03-01T06:04:36;5.80;99.10
23385;DHT22;11865;45.394;10.978;2023-03-01T06:07:04;5.90;99.10
23385;DHT22;11865;45.394;10.978;2023-03-01T06:09:31;5.90;99.00
23385;DHT22;11865;45.394;10.978;2023-03-01T06:11:58;5.90;99.30
23385;DHT22;11865;45.394;10.978;2023-03-01T06:14:25;5.90;99.60
23385;DHT22;11865;45.394;10.978;2023-03-01T06:16:52;6.00;99.90
23385;DHT22;11865;45.394;10.978;2023-03-01T06:19:19;6.00;99.80
23385;DHT22;11865;45.394;10.978;2023-03-01T06:21:47;6.00;99.80
23385;DHT22;11865;45.394;10.978;2023-03-01T06:24:14;6.00;99.80
23385;DHT22;11865;45.394;10.978;2023-03-01T06:26:41;6.00;99.90
23385;DHT22;11865;45.394;10.978;2023-03-01T06:29:08;6.00;99.80
23385;DHT22;11865;45.394;10.978;2023-03-01T06:31:35;6.00;99.70
23385;DHT22;11865;45.394;10.978;2023-03-01T06:34:03;6.10;99.40
23385;DHT22;11865;45.394;10.978;2023-03-01T06:36:30;6.20;99.40
23385;DHT22;11865;45.394;10.978;2023-03-01T06:38:58;6.10;98.90
23385;DHT22;11865;45.394;10.978;2023-03-01T06:41:25;6.20;98.80
23385;DHT22;11865;45.394;10.978;2023-03-01T06:43:52;6.30;98.90
23385;DHT22;11865;45.394;10.978;2023-03-01T06:46:21;6.30;98.80
23385;DHT22;11865;45.394;10.978;2023-03-01T06:48:48;6.30;99.00
23385;DHT22;11865;45.394;10.978;2023-03-01T06:51:19;6.30;98.90
23385;DHT22;11865;45.394;10.978;2023-03-01T06:53:46;6.50;98.80
23385;DHT22;11865;45.394;10.978;2023-03-01T06:56:13;6.50;98.70
23385;DHT22;11865;45.394;10.978;2023-03-01T06:58:40;6.60;98.70
23385;DHT22;11865;45.394;10.978;2023-03-01T07:01:08;6.50;98.50
23385;DHT22;11865;45.394;10.978;2023-03-01T07:03:35;6.70;98.70
23385;DHT22;11865;45.394;10.978;2023-03-01T07:06:02;6.60;98.60
23385;DHT22;11865;45.394;10.978;2023-03-01T07:08:30;6.70;98.60
23385;DHT22;11865;45.394;10.978;2023-03-01T07:10:57;6.60;98.40
23385;DHT22;11865;45.394;10.978;2023-03-01T07:13:25;6.60;98.40
23385;DHT22;11865;45.394;10.978;2023-03-01T07:15:52;6.70;98.50
23385;DHT22;11865;45.394;10.978;2023-03-01T07:18:19;6.80;98.40
23385;DHT22;11865;45.394;10.978;2023-03-01T07:20:47;6.80;98.50
23385;DHT22;11865;45.394;10.978;2023-03-01T07:23:14;6.80;98.20
23385;DHT22;11865;45.394;10.978;2023-03-01T07:25:42;6.80;98.40
23385;DHT22;11865;45.394;10.978;2023-03-01T07:28:09;6.90;98.20
23385;DHT22;11865;45.394;10.978;2023-03-01T07:30:36;6.80;98.40
23385;DHT22;11865;45.394;10.978;2023-03-01T07:33:03;6.80;98.60
23385;DHT22;11865;45.394;10.978;2023-03-01T07:35:31;6.90;99.00
23385;DHT22;11865;45.394;10.978;2023-03-01T07:38:00;6.80;98.80
23385;DHT22;11865;45.394;10.978;2023-03-01T07:40:27;7.10;98.70
23385;DHT22;11865;45.394;10.978;2023-03-01T07:42:55;7.10;98.50
23385;DHT22;11865;45.394;10.978;2023-03-01T07:45:22;7.20;98.50
23385;DHT22;11865;45.394;10.978;2023-03-01T07:47:50;7.20;98.20
23385;DHT22;11865;45.394;10.978;2023-03-01T07:50:17;7.30;98.20
23385;DHT22;11865;45.394;10.978;2023-03-01T07:52:45;7.30;97.90
23385;DHT22;11865;45.394;10.978;2023-03-01T07:55:12;7.50;97.40
23385;DHT22;11865;45.394;10.978;2023-03-01T07:57:40;7.60;97.80
23385;DHT22;11865;45.394;10.978;2023-03-01T08:00:07;7.70;97.70
23385;DHT22;11865;45.394;10.978;2023-03-01T08:02:40;7.70;97.50
23385;DHT22;11865;45.394;10.978;2023-03-01T08:05:09;7.80;97.60
23385;DHT22;11865;45.394;10.978;2023-03-01T08:07:37;7.80;96.70
23385;DHT22;11865;45.394;10.978;2023-03-01T08:10:04;7.90;96.40
23385;DHT22;11865;45.394;10.978;2023-03-01T08:12:32;8.10;96.30
23385;DHT22;11865;45.394;10.978;2023-03-01T08:14:59;8.30;95.70
23385;DHT22;11865;45.394;10.978;2023-03-01T08:17:26;8.50;95.10
23385;DHT22;11865;45.394;10.978;2023-03-01T08:19:54;8.50;95.20
23385;DHT22;11865;45.394;10.978;2023-03-01T08:22:21;8.50;95.30
23385;DHT22;11865;45.394;10.978;2023-03-01T08:24:48;8.40;95.70
23385;DHT22;11865;45.394;10.978;2023-03-01T08:27:16;8.40;95.90
23385;DHT22;11865;45.394;10.978;2023-03-01T08:29:43;8.50;96.20
23385;DHT22;11865;45.394;10.978;2023-03-01T08:32:10;8.70;95.80
23385;DHT22;11865;45.394;10.978;2023-03-01T08:34:38;8.70;96.00
23385;DHT22;11865;45.394;10.978;2023-03-01T08:37:07;8.90;96.30
23385;DHT22;11865;45.394;10.978;2023-03-01T08:39:34;8.90;95.80
23385;DHT22;11865;45.394;10.978;2023-03-01T08:42:02;8.80;96.30
23385;DHT22;11865;45.394;10.978;2023-03-01T08:44:29;8.90;96.70
23385;DHT22;11865;45.394;10.978;2023-03-01T08:46:56;8.80;96.60
23385;DHT22;11865;45.394;10.978;2023-03-01T08:49:24;8.70;96.80
23385;DHT22;11865;45.394;10.978;2023-03-01T08:51:51;8.50;97.20
23385;DHT22;11865;45.394;10.978;2023-03-01T08:54:19;8.60;97.00
23385;DHT22;11865;45.394;10.978;2023-03-01T08:56:47;8.70;97.30
23385;DHT22;11865;45.394;10.978;2023-03-01T08:59:16;8.80;97.60
23385;DHT22;11865;45.394;10.978;2023-03-01T09:01:44;8.80;97.50
23385;DHT22;11865;45.394;10.978;2023-03-01T09:04:11;8.90;97.50
23385;DHT22;11865;45.394;10.978;2023-03-01T09:06:39;8.90;97.50
23385;DHT22;11865;45.394;10.978;2023-03-01T09:09:06;9.00;97.30
23385;DHT22;11865;45.394;10.978;2023-03-01T09:11:34;9.20;96.60
23385;DHT22;11865;45.394;10.978;2023-03-01T09:14:04;9.10;96.80
23385;DHT22;11865;45.394;10.978;2023-03-01T09:16:31;9.30;96.20
23385;DHT22;11865;45.394;10.978;2023-03-01T09:19:03;9.30;95.20
23385;DHT22;11865;45.394;10.978;2023-03-01T09:21:30;9.10;95.20
23385;DHT22;11865;45.394;10.978;2023-03-01T09:24:11;9.00;95.10
23385;DHT22;11865;45.394;10.978;2023-03-01T09:26:39;9.10;95.40
23385;DHT22;11865;45.394;10.978;2023-03-01T09:29:06;9.00;95.40
23385;DHT22;11865;45.394;10.978;2023-03-01T09:31:33;9.00;95.40
23385;DHT22;11865;45.394;10.978;2023-03-01T09:34:01;9.00;95.50
23385;DHT22;11865;45.394;10.978;2023-03-01T09:36:28;9.20;95.40
23385;DHT22;11865;45.394;10.978;2023-03-01T09:38:57;9.40;94.60
23385;DHT22;11865;45.394;10.978;2023-03-01T09:41:59;9.40;94.50
23385;DHT22;11865;45.394;10.978;2023-03-01T09:44:25;9.50;94.60
23385;DHT22;11865;45.394;10.978;2023-03-01T09:46:55;9.60;94.70
23385;DHT22;11865;45.394;10.978;2023-03-01T09:49:25;9.60;94.40
23385;DHT22;11865;45.394;10.978;2023-03-01T09:54:40;9.60;94.50
23385;DHT22;11865;45.394;10.978;2023-03-01T09:59:54;9.80;94.30
23385;DHT22;11865;45.394;10.978;2023-03-01T10:04:51;9.60;94.50
23385;DHT22;11865;45.394;10.978;2023-03-01T10:09:56;9.30;94.90
23385;DHT22;11865;45.394;10.978;2023-03-01T10:12:25;9.40;94.60
23385;DHT22;11865;45.394;10.978;2023-03-01T10:17:35;9.30;94.90
23385;DHT22;11865;45.394;10.978;2023-03-01T10:22:46;9.50;94.50
23385;DHT22;11865;45.394;10.978;2023-03-01T10:25:21;9.50;94.70
23385;DHT22;11865;45.394;10.978;2023-03-01T10:27:54;9.70;94.40
23385;DHT22;11865;45.394;10.978;2023-03-01T10:30:36;9.80;94.90
23385;DHT22;11865;45.394;10.978;2023-03-01T10:33:12;9.70;95.00
23385;DHT22;11865;45.394;10.978;2023-03-01T10:35:40;9.80;95.20
23385;DHT22;11865;45.394;10.978;2023-03-01T10:38:09;9.90;94.80
23385;DHT22;11865;45.394;10.978;2023-03-01T10:40:49;9.90;95.20
23385;DHT22;11865;45.394;10.978;2023-03-01T10:43:17;9.80;94.70
23385;DHT22;11865;45.394;10.978;2023-03-01T10:45:44;9.90;94.20
23385;DHT22;11865;45.394;10.978;2023-03-01T10:48:15;10.10;94.00
23385;DHT22;11865;45.394;10.978;2023-03-01T10:50:46;10.10;92.50
23385;DHT22;11865;45.394;10.978;2023-03-01T10:53:22;10.10;93.00
23385;DHT22;11865;45.394;10.978;2023-03-01T10:58:25;10.20;93.30
23385;DHT22;11865;45.394;10.978;2023-03-01T11:03:38;10.30;92.80
23385;DHT22;11865;45.394;10.978;2023-03-01T11:06:20;10.50;92.30
23385;DHT22;11865;45.394;10.978;2023-03-01T11:08:49;10.80;92.10
23385;DHT22;11865;45.394;10.978;2023-03-01T11:13:57;10.90;91.50
23385;DHT22;11865;45.394;10.978;2023-03-01T11:16:35;10.60;92.10
23385;DHT22;11865;45.394;10.978;2023-03-01T11:19:25;10.60;91.80
23385;DHT22;11865;45.394;10.978;2023-03-01T11:26:51;10.30;91.90
23385;DHT22;11865;45.394;10.978;2023-03-01T11:32:13;10.40;92.80
23385;DHT22;11865;45.394;10.978;2023-03-01T11:34:49;10.20;92.60
23385;DHT22;11865;45.394;10.978;2023-03-01T11:39:56;10.30;92.40
23385;DHT22;11865;45.394;10.978;2023-03-01T11:42:28;10.40;91.80
23385;DHT22;11865;45.394;10.978;2023-03-01T11:44:59;10.50;91.20
23385;DHT22;11865;45.394;10.978;2023-03-01T11:55:29;10.80;92.20
23385;DHT22;11865;45.394;10.978;2023-03-01T11:58:20;10.70;92.50
23385;DHT22;11865;45.394;10.978;2023-03-01T12:00:56;10.70;93.90
23385;DHT22;11865;45.394;10.978;2023-03-01T12:03:33;10.70;93.70
23385;DHT22;11865;45.394;10.978;2023-03-01T12:06:19;10.60;94.50
23385;DHT22;11865;45.394;10.978;2023-03-01T12:09:01;10.20;94.60
23385;DHT22;11865;45.394;10.978;2023-03-01T12:11:34;10.10;94.90
23385;DHT22;11865;45.394;10.978;2023-03-01T12:17:07;10.50;95.70
23385;DHT22;11865;45.394;10.978;2023-03-01T12:20:02;10.70;94.80
23385;DHT22;11865;45.394;10.978;2023-03-01T12:22:44;10.70;95.30
23385;DHT22;11865;45.394;10.978;2023-03-01T12:30:25;10.70;95.10
23385;DHT22;11865;45.394;10.978;2023-03-01T12:32:58;10.60;95.70
23385;DHT22;11865;45.394;10.978;2023-03-01T12:35:40;10.50;94.40
23385;DHT22;11865;45.394;10.978;2023-03-01T12:41:06;10.30;95.90
23385;DHT22;11865;45.394;10.978;2023-03-01T12:43:44;10.10;96.70
23385;DHT22;11865;45.394;10.978;2023-03-01T12:46:19;10.00;96.70
23385;DHT22;11865;45.394;10.978;2023-03-01T12:51:34;9.80;97.70
23385;DHT22;11865;45.394;10.978;2023-03-01T12:54:05;9.80;97.30
23385;DHT22;11865;45.394;10.978;2023-03-01T12:56:34;9.80;96.70
23385;DHT22;11865;45.394;10.978;2023-03-01T13:06:44;10.10;96.90
23385;DHT22;11865;45.394;10.978;2023-03-01T13:11:42;10.30;96.70
23385;DHT22;11865;45.394;10.978;2023-03-01T13:16:52;10.30;97.10
23385;DHT22;11865;45.394;10.978;2023-03-01T13:19:20;10.30;96.40
23385;DHT22;11865;45.394;10.978;2023-03-01T13:21:49;10.20;96.70
23385;DHT22;11865;45.394;10.978;2023-03-01T13:24:27;10.30;95.40
23385;DHT22;11865;45.394;10.978;2023-03-01T13:30:12;10.30;94.80
23385;DHT22;11865;45.394;10.978;2023-03-01T13:32:33;10.30;94.40
23385;DHT22;11865;45.394;10.978;2023-03-01T13:37:37;10.30;94.10
23385;DHT22;11865;45.394;10.978;2023-03-01T13:42:55;9.80;96.30
23385;DHT22;11865;45.394;10.978;2023-03-01T13:48:01;9.70;97.00
23385;DHT22;11865;45.394;10.978;2023-03-01T13:50:29;9.70;96.80
23385;DHT22;11865;45.394;10.978;2023-03-01T13:53:00;9.60;97.00
23385;DHT22;11865;45.394;10.978;2023-03-01T13:58:03;9.70;96.90
23385;DHT22;11865;45.394;10.978;2023-03-01T14:03:02;9.90;96.70
23385;DHT22;11865;45.394;10.978;2023-03-01T14:05:32;9.70;96.80
23385;DHT22;11865;45.394;10.978;2023-03-01T14:08:00;9.80;97.50
23385;DHT22;11865;45.394;10.978;2023-03-01T14:10:29;9.50;99.00
23385;DHT22;11865;45.394;10.978;2023-03-01T14:18:57;8.80;99.90
23385;DHT22;11865;45.394;10.978;2023-03-01T14:21:27;8.70;99.90
23385;DHT22;11865;45.394;10.978;2023-03-01T14:23:56;8.60;99.90
23385;DHT22;11865;45.394;10.978;2023-03-01T14:26:24;8.50;99.90
23385;DHT22;11865;45.394;10.978;2023-03-01T14:28:51;8.30;99.90
23385;DHT22;11865;45.394;10.978;2023-03-01T14:31:31;8.10;99.90
23385;DHT22;11865;45.394;10.978;2023-03-01T14:34:31;7.80;99.90
23385;DHT22;11865;45.394;10.978;2023-03-01T14:37:09;7.60;99.90
23385;DHT22;11865;45.394;10.978;2023-03-01T14:39:36;7.50;99.90
23385;DHT22;11865;45.394;10.978;2023-03-01T14:42:04;7.50;99.90
23385;DHT22;11865;45.394;10.978;2023-03-01T14:44:42;7.40;99.90
23385;DHT22;11865;45.394;10.978;2023-03-01T14:47:29;7.40;99.90
23385;DHT22;11865;45.394;10.978;2023-03-01T14:50:02;7.40;99.90
23385;DHT22;11865;45.394;10.978;2023-03-01T14:52:49;7.30;99.90
23385;DHT22;11865;45.394;10.978;2023-03-01T14:55:18;7.30;99.90
23385;DHT22;11865;45.394;10.978;2023-03-01T14:57:49;7.30;99.90
23385;DHT22;11865;45.394;10.978;2023-03-01T15:00:21;7.40;99.90
23385;DHT22;11865;45.394;10.978;2023-03-01T15:02:50;7.10;99.90
23385;DHT22;11865;45.394;10.978;2023-03-01T15:05:18;7.10;99.90
23385;DHT22;11865;45.394;10.978;2023-03-01T15:07:45;7.20;99.90
23385;DHT22;11865;45.394;10.978;2023-03-01T15:10:26;7.20;99.90
23385;DHT22;11865;45.394;10.978;2023-03-01T15:12:53;7.20;99.90
23385;DHT22;11865;45.394;10.978;2023-03-01T15:15:22;7.20;99.90
23385;DHT22;11865;45.394;10.978;2023-03-01T15:17:53;7.20;99.90
23385;DHT22;11865;45.394;10.978;2023-03-01T15:20:23;7.20;99.90
23385;DHT22;11865;45.394;10.978;2023-03-01T15:22:53;7.10;99.90
23385;DHT22;11865;45.394;10.978;2023-03-01T15:25:22;7.10;99.90
23385;DHT22;11865;45.394;10.978;2023-03-01T15:27:50;7.20;99.90
23385;DHT22;11865;45.394;10.978;2023-03-01T15:30:19;7.10;99.90
23385;DHT22;11865;45.394;10.978;2023-03-01T15:32:47;7.20;99.90
23385;DHT22;11865;45.394;10.978;2023-03-01T15:38:01;7.20;99.90
23385;DHT22;11865;45.394;10.978;2023-03-01T15:40:29;7.20;99.90
23385;DHT22;11865;45.394;10.978;2023-03-01T15:43:03;7.10;99.90
23385;DHT22;11865;45.394;10.978;2023-03-01T15:45:31;7.20;99.90
23385;DHT22;11865;45.394;10.978;2023-03-01T15:48:01;7.20;99.90
23385;DHT22;11865;45.394;10.978;2023-03-01T15:50:33;7.10;99.90
23385;DHT22;11865;45.394;10.978;2023-03-01T15:53:04;7.10;99.90
23385;DHT22;11865;45.394;10.978;2023-03-01T15:55:33;7.10;99.90
23385;DHT22;11865;45.394;10.978;2023-03-01T15:58:02;7.10;99.90
23385;DHT22;11865;45.394;10.978;2023-03-01T16:00:30;7.00;99.90
23385;DHT22;11865;45.394;10.978;2023-03-01T16:02:57;7.00;99.90
23385;DHT22;11865;45.394;10.978;2023-03-01T16:05:26;7.10;99.90
23385;DHT22;11865;45.394;10.978;2023-03-01T16:07:54;7.00;99.90
23385;DHT22;11865;45.394;10.978;2023-03-01T16:10:21;7.10;99.90
23385;DHT22;11865;45.394;10.978;2023-03-01T16:12:49;7.00;99.90
23385;DHT22;11865;45.394;10.978;2023-03-01T16:15:19;6.90;99.90
23385;DHT22;11865;45.394;10.978;2023-03-01T16:17:47;6.80;99.90
23385;DHT22;11865;45.394;10.978;2023-03-01T16:20:21;6.90;99.90
23385;DHT22;11865;45.394;10.978;2023-03-01T16:22:54;7.00;99.90
23385;DHT22;11865;45.394;10.978;2023-03-01T16:25:22;6.90;99.90
23385;DHT22;11865;45.394;10.978;2023-03-01T16:27:49;6.80;99.90
23385;DHT22;11865;45.394;10.978;2023-03-01T16:30:21;6.80;99.90
23385;DHT22;11865;45.394;10.978;2023-03-01T16:32:48;6.80;99.90
23385;DHT22;11865;45.394;10.978;2023-03-01T16:35:17;6.90;99.90
23385;DHT22;11865;45.394;10.978;2023-03-01T16:37:45;6.90;99.90
23385;DHT22;11865;45.394;10.978;2023-03-01T16:40:23;6.80;99.90
23385;DHT22;11865;45.394;10.978;2023-03-01T16:42:51;6.90;99.90
23385;DHT22;11865;45.394;10.978;2023-03-01T16:45:18;6.90;99.90
23385;DHT22;11865;45.394;10.978;2023-03-01T16:47:53;7.00;99.90
23385;DHT22;11865;45.394;10.978;2023-03-01T16:50:22;7.00;99.90
23385;DHT22;11865;45.394;10.978;2023-03-01T16:52:49;7.10;99.90
23385;DHT22;11865;45.394;10.978;2023-03-01T16:55:17;6.90;99.90
23385;DHT22;11865;45.394;10.978;2023-03-01T16:57:44;6.70;99.90
23385;DHT22;11865;45.394;10.978;2023-03-01T17:00:11;6.90;99.90
23385;DHT22;11865;45.394;10.978;2023-03-01T17:02:40;6.80;99.90
23385;DHT22;11865;45.394;10.978;2023-03-01T17:05:08;6.90;99.90
23385;DHT22;11865;45.394;10.978;2023-03-01T17:07:37;6.90;99.90
23385;DHT22;11865;45.394;10.978;2023-03-01T17:10:04;6.90;99.90
23385;DHT22;11865;45.394;10.978;2023-03-01T17:12:32;6.90;99.90
23385;DHT22;11865;45.394;10.978;2023-03-01T17:15:00;6.90;99.90
23385;DHT22;11865;45.394;10.978;2023-03-01T17:17:28;6.90;99.90
23385;DHT22;11865;45.394;10.978;2023-03-01T17:19:55;6.80;99.90
23385;DHT22;11865;45.394;10.978;2023-03-01T17:22:23;6.80;99.90
23385;DHT22;11865;45.394;10.978;2023-03-01T17:24:50;6.70;99.90
23385;DHT22;11865;45.394;10.978;2023-03-01T17:27:17;6.70;99.90
23385;DHT22;11865;45.394;10.978;2023-03-01T17:29:45;6.90;99.90
23385;DHT22;11865;45.394;10.978;2023-03-01T17:32:12;6.80;99.90
23385;DHT22;11865;45.394;10.978;2023-03-01T17:34:40;6.80;99.90